< < Back
Terminal Aerodrome Forecast


Current Version              Previous Versions:   1  2  3  4  5  6  7  8  9  

Terminal Aerodrome Forecast

662
FTUS42 KGSP 151700
TAFAND
TAF
KAND 151737Z 1518/1618 19003KT P6SM OVC018
     FM152100 23004KT P6SM VCSH OVC030
      TEMPO 1522/1602 4SM TSRA OVC020CB
     FM160500 22003KT P6SM OVC025
     FM160800 25003KT 6SM BR BKN012
     FM161400 29005KT P6SM BKN030=

Latest METAR

131
SAUS70 KWBC 160700 RRA
MTRAND
METAR KAND 160656Z AUTO 00000KT 7SM OVC013 22/21 A3011 RMK AO2 RAE08
SLP187 P0000 T02170211


USA.gov is the U.S. government's official web portal to all federal, state and local government web resources and services.